Time;durP1;ratioP1;P1;durP2;ratioP2;P2;SDS_P1;SDS_P2;PMS_P1;PMS_P2;Temp;Humidity;BMP_temperature;BMP_pressure;BME280_temperature;BME280_humidity;BME280_pressure;Samples;Min_cycle;Max_cycle;Signal;HPM_P1;HPM_P2
2023/11/29 00:01:36;;;;;;;3.15;2.80;;;6.50;64.50;8.50;100068.00;;;;5026266;28;20678;-76
2023/11/29 00:04:03;;;;;;;3.40;2.60;;;6.50;64.50;8.50;100058.00;;;;5027142;28;20223;-76
2023/11/29 00:06:31;;;;;;;3.00;2.38;;;6.50;64.50;8.50;100055.00;;;;5027335;28;20222;-76
2023/11/29 00:08:58;;;;;;;3.22;2.50;;;6.50;64.60;8.50;100051.00;;;;5028223;28;20674;-76
2023/11/29 00:11:25;;;;;;;4.35;2.67;;;6.40;64.60;8.60;100051.00;;;;5028332;28;20227;-75
2023/11/29 00:13:52;;;;;;;2.33;2.13;;;6.40;64.70;8.60;100047.00;;;;5027491;28;20204;-76
2023/11/29 00:16:19;;;;;;;2.60;2.20;;;6.50;64.90;8.60;100053.00;;;;5026280;28;20200;-76
2023/11/29 00:18:48;;;;;;;3.08;2.30;;;6.50;65.00;8.60;100059.00;;;;5026950;28;20200;-75
2023/11/29 00:21:15;;;;;;;4.18;2.78;;;6.50;65.10;8.70;100068.00;;;;5026968;28;20227;-75
2023/11/29 00:23:42;;;;;;;5.00;3.85;;;6.50;65.10;8.70;100073.00;;;;5026455;28;20685;-75
2023/11/29 00:26:09;;;;;;;8.00;4.20;;;6.60;65.10;8.70;100068.00;;;;5027425;28;20212;-75
2023/11/29 00:28:36;;;;;;;5.80;3.35;;;6.60;65.20;8.80;100073.00;;;;5026655;28;20574;-75
2023/11/29 00:31:03;;;;;;;3.17;2.53;;;6.60;65.20;8.80;100064.00;;;;5024972;28;20670;-75
2023/11/29 00:33:30;;;;;;;3.20;2.35;;;6.60;65.20;8.80;100060.00;;;;5020389;28;20204;-75
2023/11/29 00:35:58;;;;;;;1.65;1.50;;;6.60;65.20;8.80;100049.00;;;;5026146;28;20693;-75
2023/11/29 00:38:25;;;;;;;3.17;1.88;;;6.70;65.20;8.80;100043.00;;;;5027379;28;20201;-76
2023/11/29 00:40:52;;;;;;;3.00;1.52;;;6.70;65.30;8.80;100032.00;;;;5019513;28;20219;-75
2023/11/29 00:43:19;;;;;;;2.38;1.67;;;6.70;65.30;8.80;100041.00;;;;5026959;28;20239;-76
2023/11/29 00:45:46;;;;;;;2.50;1.70;;;6.70;65.40;8.80;100027.00;;;;5026547;28;20197;-76
2023/11/29 00:48:13;;;;;;;3.03;1.55;;;6.70;65.80;8.70;100013.00;;;;5026951;28;20231;-75
2023/11/29 00:50:41;;;;;;;3.05;1.40;;;6.70;65.40;8.70;100012.00;;;;5027088;28;20196;-75
2023/11/29 00:53:09;;;;;;;1.65;1.30;;;6.80;65.40;8.70;100016.00;;;;5024838;28;20200;-75
2023/11/29 00:55:36;;;;;;;2.10;1.30;;;6.80;65.40;8.70;100005.00;;;;5023258;28;20219;-75
2023/11/29 00:58:03;;;;;;;1.45;1.20;;;6.80;65.40;8.70;99988.00;;;;5023790;28;20208;-75
2023/11/29 01:00:30;;;;;;;1.55;1.30;;;6.80;65.40;8.70;99981.00;;;;5015186;28;20558;-75
2023/11/29 01:02:57;;;;;;;2.53;1.60;;;6.80;65.40;8.70;99980.00;;;;5027168;28;20231;-76
2023/11/29 01:05:24;;;;;;;1.85;1.40;;;6.80;65.40;8.70;99981.00;;;;5025732;28;20204;-76
2023/11/29 01:07:51;;;;;;;2.08;1.80;;;6.80;65.40;8.70;99960.00;;;;5025714;28;20204;-75
2023/11/29 01:10:20;;;;;;;2.33;1.50;;;6.80;65.40;8.70;99965.00;;;;5027129;28;20678;-75
2023/11/29 01:12:47;;;;;;;2.40;2.03;;;6.80;65.40;8.70;99963.00;;;;5026128;28;20204;-75
2023/11/29 01:15:14;;;;;;;2.40;1.70;;;6.80;65.50;8.70;99969.00;;;;5026139;28;20677;-76
2023/11/29 01:17:41;;;;;;;6.05;1.92;;;6.80;65.50;8.70;99964.00;;;;5027207;28;20658;-75
2023/11/29 01:20:09;;;;;;;2.63;1.50;;;6.80;65.50;8.80;99966.00;;;;5026760;28;20200;-75
2023/11/29 01:22:37;;;;;;;3.35;1.40;;;6.80;65.60;8.80;99969.00;;;;5030801;28;20342;-75
2023/11/29 01:25:05;;;;;;;2.35;1.33;;;6.80;65.60;8.80;99967.00;;;;5016233;28;20203;-75
2023/11/29 01:27:33;;;;;;;1.67;1.55;;;6.80;65.70;8.80;99977.00;;;;5026709;28;20569;-75
2023/11/29 01:30:02;;;;;;;2.88;1.90;;;6.80;65.70;8.80;99975.00;;;;5029126;28;20279;-75
2023/11/29 01:32:29;;;;;;;1.30;1.10;;;6.90;65.80;8.80;99973.00;;;;5029746;28;20660;-75
2023/11/29 01:34:56;;;;;;;1.23;0.80;;;6.90;66.00;8.90;99976.00;;;;5022128;28;20196;-75
2023/11/29 01:37:23;;;;;;;1.92;0.70;;;6.90;66.00;8.90;99972.00;;;;5030649;28;20916;-75
2023/11/29 01:39:50;;;;;;;0.73;0.50;;;6.90;66.10;8.90;99969.00;;;;5031544;28;20861;-75
2023/11/29 01:42:18;;;;;;;2.00;0.60;;;7.00;66.20;9.00;99968.00;;;;5030377;28;20698;-75
2023/11/29 01:44:48;;;;;;;1.02;0.50;;;7.00;66.20;9.00;99965.00;;;;5031415;28;20192;-75
2023/11/29 01:47:17;;;;;;;0.47;0.38;;;7.00;66.10;9.00;99959.00;;;;5021957;28;20204;-75
2023/11/29 01:49:44;;;;;;;0.90;0.55;;;7.10;66.10;9.00;99956.00;;;;5031135;28;20251;-75
2023/11/29 01:52:14;;;;;;;2.05;0.52;;;7.10;66.10;9.00;99962.00;;;;5021662;28;20704;-75
2023/11/29 01:54:42;;;;;;;1.40;0.50;;;7.20;66.20;9.10;99953.00;;;;5029874;28;20204;-75
2023/11/29 01:57:09;;;;;;;1.38;0.60;;;7.20;66.20;9.10;99945.00;;;;5029440;28;20837;-75
2023/11/29 01:59:37;;;;;;;0.80;0.60;;;7.20;66.20;9.20;99956.00;;;;5030715;28;20196;-75
2023/11/29 02:02:06;;;;;;;1.00;0.45;;;7.20;66.10;9.20;99941.00;;;;5029974;28;20216;-75
2023/11/29 02:04:33;;;;;;;1.60;0.60;;;7.30;66.10;9.20;99937.00;;;;5029892;28;20646;-75
2023/11/29 02:07:02;;;;;;;0.55;0.47;;;7.30;66.10;9.20;99934.00;;;;5029290;28;20565;-75
2023/11/29 02:09:28;;;;;;;0.90;0.40;;;7.40;66.20;9.20;99934.00;;;;5029408;28;20214;-76
2023/11/29 02:11:56;;;;;;;2.22;0.50;;;7.40;66.20;9.30;99931.00;;;;5028606;28;20235;-75
2023/11/29 02:14:23;;;;;;;0.43;0.40;;;7.40;66.00;9.30;99933.00;;;;5030211;28;20207;-75
2023/11/29 02:16:50;;;;;;;0.70;0.30;;;7.40;66.00;9.30;99922.00;;;;5025532;28;20196;-75
2023/11/29 02:19:18;;;;;;;0.85;0.40;;;7.40;66.00;9.30;99915.00;;;;5027992;28;20197;-75
2023/11/29 02:21:45;;;;;;;1.55;0.47;;;7.40;65.90;9.30;99910.00;;;;5029786;28;20246;-75
2023/11/29 02:24:17;;;;;;;1.30;0.50;;;7.40;65.90;9.30;99918.00;;;;5027695;28;20210;-76
2023/11/29 02:26:46;;;;;;;1.85;0.73;;;7.40;65.90;9.30;99922.00;;;;5025520;28;20262;-75
2023/11/29 02:29:13;;;;;;;2.47;0.70;;;7.40;65.80;9.30;99920.00;;;;5022400;28;20255;-75
2023/11/29 02:31:40;;;;;;;0.88;0.50;;;7.50;65.80;9.30;99912.00;;;;5024098;28;20200;-76
2023/11/29 02:34:07;;;;;;;0.50;0.43;;;7.50;65.80;9.30;99905.00;;;;5029065;28;20193;-76
2023/11/29 02:36:34;;;;;;;0.60;0.40;;;7.50;65.80;9.30;99900.00;;;;5028040;28;20207;-75
2023/11/29 02:39:01;;;;;;;1.67;0.73;;;7.50;65.80;9.40;99892.00;;;;5029070;28;20196;-76
2023/11/29 02:41:28;;;;;;;1.30;0.85;;;7.50;65.80;9.40;99893.00;;;;5029013;28;20262;-75
2023/11/29 02:43:56;;;;;;;1.20;0.80;;;7.50;65.90;9.40;99902.00;;;;5028869;28;20602;-76
2023/11/29 02:46:23;;;;;;;1.42;0.65;;;7.50;66.00;9.50;99915.00;;;;5027910;28;20666;-76
2023/11/29 02:48:53;;;;;;;1.63;0.85;;;7.50;66.00;9.50;99918.00;;;;5029067;28;20207;-75
2023/11/29 02:51:19;;;;;;;1.42;1.10;;;7.50;66.00;9.50;99910.00;;;;5029468;28;20236;-75
2023/11/29 02:53:46;;;;;;;3.42;1.27;;;7.50;65.90;9.50;99909.00;;;;5028413;28;20855;-75
2023/11/29 02:56:13;;;;;;;0.95;0.85;;;7.50;65.90;9.50;99904.00;;;;5028753;28;20196;-76
2023/11/29 02:58:40;;;;;;;1.48;0.80;;;7.60;66.00;9.50;99889.00;;;;5029195;28;20192;-76
2023/11/29 03:01:09;;;;;;;1.58;1.10;;;7.60;65.90;9.50;99885.00;;;;5028316;28;20203;-76
2023/11/29 03:03:36;;;;;;;1.10;1.02;;;7.60;66.00;9.50;99870.00;;;;5028000;28;20220;-76
2023/11/29 03:06:03;;;;;;;2.20;1.60;;;7.60;65.90;9.50;99872.00;;;;5027916;28;20208;-75
2023/11/29 03:08:30;;;;;;;4.85;1.40;;;7.60;66.00;9.50;99873.00;;;;5028095;28;20200;-75
2023/11/29 03:10:57;;;;;;;4.75;1.77;;;7.60;65.90;9.50;99883.00;;;;5022769;28;20980;-75
2023/11/29 03:13:28;;;;;;;2.28;1.48;;;7.60;65.90;9.50;99872.00;;;;5028088;28;20501;-76
2023/11/29 03:15:55;;;;;;;2.50;1.20;;;7.60;66.00;9.50;99860.00;;;;5027966;28;20254;-75
2023/11/29 03:18:23;;;;;;;1.60;1.10;;;7.60;66.00;9.50;99840.00;;;;5029504;28;20204;-75
2023/11/29 03:20:50;;;;;;;1.90;0.85;;;7.60;66.00;9.50;99826.00;;;;5026281;28;20207;-75
2023/11/29 03:23:17;;;;;;;1.23;0.70;;;7.70;66.10;9.60;99825.00;;;;5021698;28;20942;-75
2023/11/29 03:25:44;;;;;;;1.75;0.82;;;7.70;66.10;9.60;99830.00;;;;5027453;28;22030;-75
2023/11/29 03:28:11;;;;;;;2.30;1.33;;;7.70;66.10;9.60;99829.00;;;;5026877;28;20208;-75
2023/11/29 03:30:38;;;;;;;2.45;0.98;;;7.70;66.10;9.60;99824.00;;;;5026881;28;20192;-75
2023/11/29 03:33:05;;;;;;;1.60;1.00;;;7.70;66.10;9.60;99808.00;;;;5018138;28;20204;-75
2023/11/29 03:35:33;;;;;;;1.55;1.00;;;7.70;66.10;9.70;99807.00;;;;5028874;28;20211;-75
2023/11/29 03:38:00;;;;;;;2.92;1.00;;;7.70;66.10;9.70;99790.00;;;;5028605;28;20200;-75
2023/11/29 03:40:27;;;;;;;3.15;1.25;;;7.70;66.00;9.70;99790.00;;;;5027083;28;20204;-75
2023/11/29 03:42:54;;;;;;;1.30;1.10;;;7.80;66.00;9.70;99782.00;;;;5021326;28;20232;-75
2023/11/29 03:45:21;;;;;;;1.90;1.10;;;7.80;66.10;9.70;99783.00;;;;5027296;28;20204;-75
2023/11/29 03:47:48;;;;;;;1.35;0.98;;;7.80;66.00;9.70;99775.00;;;;5028291;28;20207;-75
2023/11/29 03:50:15;;;;;;;4.28;1.00;;;7.80;66.00;9.70;99773.00;;;;5023031;28;20235;-75
2023/11/29 03:52:44;;;;;;;1.33;1.00;;;7.80;66.00;9.70;99764.00;;;;5027370;28;20584;-75
2023/11/29 03:55:11;;;;;;;1.38;0.82;;;7.80;65.90;9.70;99761.00;;;;5028596;28;20193;-76
2023/11/29 03:57:37;;;;;;;1.45;0.98;;;7.80;66.00;9.70;99756.00;;;;5027581;28;20670;-75
2023/11/29 04:00:07;;;;;;;1.55;0.68;;;7.80;66.00;9.70;99757.00;;;;5026682;28;20204;-76
2023/11/29 04:02:34;;;;;;;2.00;0.60;;;7.80;65.90;9.70;99765.00;;;;5007906;28;20742;-75
2023/11/29 04:05:01;;;;;;;2.10;0.63;;;7.80;65.80;9.70;99752.00;;;;5028310;28;20211;-75
2023/11/29 04:07:28;;;;;;;2.25;0.77;;;7.80;65.80;9.70;99745.00;;;;5027572;28;20843;-75
2023/11/29 04:09:57;;;;;;;2.20;0.55;;;7.80;65.70;9.60;99745.00;;;;5025393;28;20573;-75
2023/11/29 04:12:24;;;;;;;1.15;0.40;;;7.80;65.70;9.60;99743.00;;;;5025314;28;20244;-75
2023/11/29 04:14:52;;;;;;;2.70;0.77;;;7.80;65.60;9.60;99741.00;;;;5015514;28;20207;-75
2023/11/29 04:17:18;;;;;;;1.67;0.50;;;7.70;65.50;9.50;99737.00;;;;5027216;28;20278;-75
2023/11/29 04:19:46;;;;;;;5.00;0.70;;;7.70;65.50;9.50;99725.00;;;;5027062;28;20203;-75
2023/11/29 04:22:13;;;;;;;1.23;0.47;;;7.70;65.60;9.50;99733.00;;;;5025880;28;20205;-75
2023/11/29 04:24:41;;;;;;;2.15;0.47;;;7.70;65.60;9.40;99733.00;;;;5019682;28;20193;-75
2023/11/29 04:27:09;;;;;;;5.30;0.38;;;7.70;65.60;9.40;99735.00;;;;5018312;28;21018;-75
2023/11/29 04:29:36;;;;;;;3.53;0.65;;;7.70;65.60;9.40;99732.00;;;;5020320;28;20658;-75
2023/11/29 04:32:03;;;;;;;1.20;0.50;;;7.70;65.70;9.40;99738.00;;;;5026838;28;20222;-75
2023/11/29 04:34:30;;;;;;;1.73;0.57;;;7.60;65.70;9.40;99735.00;;;;5025178;28;20196;-75
2023/11/29 04:36:57;;;;;;;0.82;0.38;;;7.60;65.80;9.40;99739.00;;;;5027141;28;20200;-75
2023/11/29 04:39:24;;;;;;;1.10;0.45;;;7.60;65.80;9.40;99731.00;;;;5027276;28;20211;-75
2023/11/29 04:41:51;;;;;;;3.05;0.50;;;7.60;65.90;9.40;99719.00;;;;5026751;28;20578;-75
2023/11/29 04:44:19;;;;;;;0.85;0.32;;;7.70;66.00;9.40;99726.00;;;;5027394;28;20716;-75
2023/11/29 04:46:47;;;;;;;1.00;0.35;;;7.70;65.90;9.40;99724.00;;;;5026384;28;20193;-75
2023/11/29 04:49:14;;;;;;;0.45;0.25;;;7.70;65.90;9.40;99722.00;;;;5024785;28;20254;-75
2023/11/29 04:51:41;;;;;;;0.30;0.20;;;7.70;65.90;9.40;99717.00;;;;5021661;28;21003;-75
2023/11/29 04:54:08;;;;;;;1.55;0.15;;;7.70;65.90;9.40;99715.00;;;;5027196;28;20219;-75
2023/11/29 04:56:34;;;;;;;0.47;0.30;;;7.70;65.80;9.40;99714.00;;;;5026537;28;20666;-75
2023/11/29 04:59:01;;;;;;;1.10;0.20;;;7.70;65.80;9.50;99718.00;;;;5026692;28;20196;-75
2023/11/29 05:01:30;;;;;;;0.65;0.20;;;7.70;65.70;9.40;99707.00;;;;5022037;28;20210;-75
2023/11/29 05:03:57;;;;;;;0.60;0.20;;;7.70;65.60;9.40;99701.00;;;;5028827;28;20237;-75
2023/11/29 05:06:25;;;;;;;1.10;0.10;;;7.70;65.60;9.40;99704.00;;;;5031285;28;20686;-75
2023/11/29 05:08:52;;;;;;;2.72;0.30;;;7.70;65.50;9.40;99703.00;;;;5032230;28;20196;-75
2023/11/29 05:11:19;;;;;;;0.35;0.10;;;7.70;65.40;9.40;99705.00;;;;5033622;28;20602;-75
2023/11/29 05:13:46;;;;;;;0.20;0.10;;;7.70;65.30;9.30;99703.00;;;;5033586;28;20212;-76
2023/11/29 05:16:13;;;;;;;1.15;0.20;;;7.60;65.30;9.30;99712.00;;;;5034248;28;20221;-76
2023/11/29 05:18:41;;;;;;;1.38;0.20;;;7.60;65.20;9.30;99718.00;;;;5033237;28;20211;-76
2023/11/29 05:21:09;;;;;;;1.95;0.20;;;7.60;65.30;9.30;99714.00;;;;5033424;28;20570;-76
2023/11/29 05:23:35;;;;;;;0.43;0.17;;;7.60;65.30;9.30;99714.00;;;;5031830;28;20235;-75
2023/11/29 05:26:03;;;;;;;0.28;0.10;;;7.50;65.40;9.20;99704.00;;;;5033127;28;20234;-75
2023/11/29 05:28:33;;;;;;;0.52;0.10;;;7.50;65.50;9.20;99718.00;;;;5024995;28;20265;-75
2023/11/29 05:31:00;;;;;;;0.30;0.03;;;7.50;65.50;9.20;99719.00;;;;5033778;28;20204;-76
2023/11/29 05:33:28;;;;;;;0.30;0.00;;;7.50;65.60;9.30;99721.00;;;;5031863;28;20222;-75
2023/11/29 05:36:00;;;;;;;1.15;0.20;;;7.50;65.70;9.20;99715.00;;;;5032930;28;20200;-75
2023/11/29 05:38:27;;;;;;;1.33;0.22;;;7.50;65.70;9.20;99726.00;;;;5032498;28;20200;-75
2023/11/29 05:40:54;;;;;;;1.63;0.20;;;7.50;65.80;9.30;99719.00;;;;5033235;28;20208;-75
2023/11/29 05:43:21;;;;;;;2.50;0.28;;;7.60;65.90;9.30;99711.00;;;;5032036;28;20220;-75
2023/11/29 05:45:48;;;;;;;2.78;0.55;;;7.50;65.90;9.30;99710.00;;;;5032344;28;20203;-75
2023/11/29 05:48:15;;;;;;;0.50;0.20;;;7.60;66.00;9.30;99703.00;;;;5032815;28;20200;-75
2023/11/29 05:50:42;;;;;;;2.17;0.10;;;7.60;66.10;9.30;99712.00;;;;5033421;28;20192;-75
2023/11/29 05:53:11;;;;;;;2.40;0.40;;;7.60;66.00;9.30;99712.00;;;;5033421;28;20189;-75
2023/11/29 05:55:38;;;;;;;0.40;0.10;;;7.60;66.00;9.40;99721.00;;;;5033407;28;20211;-75
2023/11/29 05:58:05;;;;;;;1.50;0.10;;;7.60;65.90;9.30;99726.00;;;;5030325;28;20224;-75
2023/11/29 06:00:32;;;;;;;1.15;0.25;;;7.60;65.80;9.40;99739.00;;;;5032753;28;20281;-76
2023/11/29 06:03:00;;;;;;;4.07;0.68;;;7.60;65.80;9.40;99735.00;;;;5028270;28;20197;-75
2023/11/29 06:05:28;;;;;;;0.65;0.20;;;7.60;65.70;9.40;99738.00;;;;5018603;28;20598;-75
2023/11/29 06:07:55;;;;;;;0.40;0.10;;;7.60;65.70;9.40;99748.00;;;;5033147;28;20200;-75
2023/11/29 06:10:23;;;;;;;2.08;0.10;;;7.60;65.60;9.40;99760.00;;;;5032136;28;20607;-76
2023/11/29 06:12:50;;;;;;;0.90;0.10;;;7.60;65.50;9.40;99758.00;;;;5032802;28;20274;-76
2023/11/29 06:15:18;;;;;;;0.60;0.28;;;7.60;65.50;9.40;99749.00;;;;5029324;28;20205;-75
2023/11/29 06:17:45;;;;;;;1.50;0.30;;;7.60;65.40;9.30;99751.00;;;;5025758;28;20201;-76
2023/11/29 06:20:13;;;;;;;0.73;0.10;;;7.50;65.30;9.30;99763.00;;;;5021101;28;20283;-75
2023/11/29 06:22:41;;;;;;;0.30;0.10;;;7.60;65.40;9.30;99772.00;;;;5027514;28;20742;-76
2023/11/29 06:25:08;;;;;;;0.20;0.00;;;7.50;65.50;9.30;99771.00;;;;5026002;28;20733;-76
2023/11/29 06:27:37;;;;;;;0.47;0.00;;;7.50;65.50;9.30;99782.00;;;;5028465;28;20550;-75
2023/11/29 06:30:05;;;;;;;0.85;0.10;;;7.50;65.60;9.40;99782.00;;;;5030203;28;20200;-76
2023/11/29 06:32:32;;;;;;;0.22;0.00;;;7.50;65.70;9.40;99775.00;;;;5030158;28;20200;-75
2023/11/29 06:34:59;;;;;;;0.73;0.10;;;7.50;65.70;9.40;99789.00;;;;5028987;28;20322;-75
2023/11/29 06:37:26;;;;;;;0.60;0.00;;;7.50;65.70;9.40;99788.00;;;;5027088;28;20204;-75
2023/11/29 06:39:53;;;;;;;1.27;0.10;;;7.50;65.60;9.30;99793.00;;;;5027926;28;20212;-76
2023/11/29 06:42:20;;;;;;;0.50;0.10;;;7.50;65.60;9.30;99797.00;;;;5028386;28;20278;-76
2023/11/29 06:44:51;;;;;;;0.52;0.25;;;7.50;65.60;9.30;99799.00;;;;5028638;28;20227;-76
2023/11/29 06:47:18;;;;;;;0.55;0.40;;;7.40;65.50;9.30;99796.00;;;;5027628;28;20200;-76
2023/11/29 06:49:45;;;;;;;2.50;0.10;;;7.40;65.50;9.30;99798.00;;;;5018387;28;20670;-76
2023/11/29 06:52:12;;;;;;;0.85;0.10;;;7.40;65.60;9.30;99813.00;;;;5028661;28;20823;-76
2023/11/29 06:54:39;;;;;;;0.80;0.20;;;7.40;65.70;9.30;99823.00;;;;5027646;28;20228;-75
2023/11/29 06:57:06;;;;;;;1.30;0.52;;;7.40;65.70;9.30;99834.00;;;;5027578;28;20669;-75
2023/11/29 06:59:34;;;;;;;2.13;0.43;;;7.40;65.80;9.30;99834.00;;;;5029103;28;20195;-76
2023/11/29 07:02:04;;;;;;;2.20;0.32;;;7.40;65.90;9.30;99845.00;;;;5019341;28;20200;-75
2023/11/29 07:04:31;;;;;;;1.00;0.20;;;7.40;65.90;9.30;99844.00;;;;5024372;28;20285;-75
2023/11/29 07:07:00;;;;;;;1.27;0.25;;;7.40;66.00;9.30;99849.00;;;;5020471;28;20206;-76
2023/11/29 07:09:28;;;;;;;1.58;0.80;;;7.40;66.10;9.30;99854.00;;;;5029826;28;20327;-76
2023/11/29 07:11:55;;;;;;;1.48;0.75;;;7.50;66.10;9.30;99863.00;;;;5024730;28;20243;-76
2023/11/29 07:14:23;;;;;;;0.80;0.15;;;7.50;66.10;9.30;99864.00;;;;5025839;28;20200;-75
2023/11/29 07:16:50;;;;;;;1.20;0.35;;;7.50;66.20;9.30;99865.00;;;;5024676;28;20242;-75
2023/11/29 07:19:19;;;;;;;1.45;0.35;;;7.50;66.10;9.30;99861.00;;;;5018622;28;20284;-75
2023/11/29 07:21:46;;;;;;;2.28;0.30;;;7.50;66.00;9.40;99876.00;;;;5029514;28;20216;-75
2023/11/29 07:24:13;;;;;;;1.13;0.30;;;7.50;66.00;9.40;99878.00;;;;5025911;28;20695;-75
2023/11/29 07:26:39;;;;;;;0.90;0.20;;;7.50;65.90;9.40;99875.00;;;;5028360;28;20581;-75
2023/11/29 07:29:08;;;;;;;2.53;0.30;;;7.50;65.90;9.40;99869.00;;;;5025725;28;20680;-76
2023/11/29 07:31:36;;;;;;;0.35;0.20;;;7.50;65.90;9.30;99865.00;;;;5029649;28;20204;-75
2023/11/29 07:34:03;;;;;;;2.42;0.20;;;7.50;65.90;9.40;99872.00;;;;5028747;28;20200;-75
2023/11/29 07:36:31;;;;;;;0.60;0.20;;;7.50;65.90;9.40;99870.00;;;;5017152;28;20201;-76
2023/11/29 07:38:58;;;;;;;1.25;0.30;;;7.50;65.90;9.40;99869.00;;;;5028028;28;20208;-76
2023/11/29 07:41:25;;;;;;;0.88;0.32;;;7.50;65.90;9.40;99881.00;;;;5020731;28;20570;-76
2023/11/29 07:43:51;;;;;;;0.20;0.10;;;7.50;66.00;9.40;99888.00;;;;5028027;28;20228;-76
2023/11/29 07:46:18;;;;;;;1.00;0.22;;;7.50;66.00;9.40;99889.00;;;;5029434;28;20573;-75
2023/11/29 07:48:45;;;;;;;1.20;0.43;;;7.50;66.00;9.40;99898.00;;;;5027111;28;20580;-76
2023/11/29 07:51:12;;;;;;;2.22;0.47;;;7.50;66.00;9.40;99896.00;;;;5027834;28;20204;-76
2023/11/29 07:53:41;;;;;;;0.85;0.30;;;7.50;65.90;9.40;99904.00;;;;5025785;28;20569;-76
2023/11/29 07:56:09;;;;;;;1.42;0.57;;;7.50;65.80;9.40;99904.00;;;;5025847;28;20216;-76
2023/11/29 07:58:36;;;;;;;1.08;0.30;;;7.50;65.80;9.50;99901.00;;;;5028381;28;20200;-75
2023/11/29 08:01:04;;;;;;;0.38;0.20;;;7.50;65.80;9.50;99905.00;;;;5028590;28;20199;-75
2023/11/29 08:03:31;;;;;;;1.15;0.50;;;7.50;65.90;9.50;99925.00;;;;5026779;28;20817;-75
2023/11/29 08:05:58;;;;;;;4.25;1.02;;;7.50;65.90;9.50;99924.00;;;;5025485;28;20200;-75
2023/11/29 08:08:25;;;;;;;2.63;0.88;;;7.50;66.00;9.50;99924.00;;;;5021480;28;20196;-75
2023/11/29 08:10:53;;;;;;;5.55;0.95;;;7.50;66.00;9.40;99939.00;;;;5018819;28;20220;-75
2023/11/29 08:13:20;;;;;;;3.72;1.70;;;7.50;65.90;9.40;99946.00;;;;5027979;28;20650;-75
2023/11/29 08:15:47;;;;;;;2.58;1.60;;;7.50;65.80;9.40;99947.00;;;;5025782;28;20963;-76
2023/11/29 08:18:14;;;;;;;3.85;1.00;;;7.50;65.80;9.40;99952.00;;;;5022850;28;20200;-75
2023/11/29 08:20:41;;;;;;;1.27;0.70;;;7.50;65.80;9.40;99954.00;;;;5022160;28;20239;-75
2023/11/29 08:23:08;;;;;;;1.10;0.70;;;7.50;65.80;9.40;99953.00;;;;5023095;28;20196;-75
2023/11/29 08:25:35;;;;;;;2.20;0.65;;;7.50;65.80;9.30;99954.00;;;;5021433;28;20719;-76
2023/11/29 08:28:03;;;;;;;2.33;0.80;;;7.50;65.80;9.30;99956.00;;;;5025020;28;20219;-76
2023/11/29 08:30:30;;;;;;;1.05;0.60;;;7.50;65.90;9.30;99963.00;;;;5024241;28;20196;-76
2023/11/29 08:32:57;;;;;;;1.63;0.47;;;7.50;65.90;9.40;99968.00;;;;5027024;28;20536;-76
2023/11/29 08:35:25;;;;;;;5.10;0.88;;;7.50;66.00;9.40;99968.00;;;;5022628;28;20823;-76
2023/11/29 08:37:52;;;;;;;2.35;1.02;;;7.50;66.10;9.40;99968.00;;;;5022724;28;20201;-76
2023/11/29 08:40:19;;;;;;;1.30;0.65;;;7.50;66.10;9.40;99965.00;;;;5017273;28;20658;-76
2023/11/29 08:42:47;;;;;;;1.15;0.60;;;7.50;66.20;9.40;99971.00;;;;5027275;28;20224;-76
2023/11/29 08:45:15;;;;;;;1.35;0.80;;;7.50;66.20;9.50;99976.00;;;;5027329;28;20216;-75
2023/11/29 08:47:44;;;;;;;2.25;0.95;;;7.60;66.20;9.50;99981.00;;;;5024408;28;20199;-76
2023/11/29 08:50:11;;;;;;;2.33;0.68;;;7.60;66.20;9.50;99988.00;;;;5026269;28;20211;-76
2023/11/29 08:52:39;;;;;;;1.55;0.50;;;7.60;66.20;9.50;99990.00;;;;5013063;28;20205;-76
2023/11/29 08:55:08;;;;;;;1.35;0.60;;;7.60;66.20;9.50;99992.00;;;;5018684;28;20208;-75
2023/11/29 08:57:35;;;;;;;1.25;0.60;;;7.60;66.20;9.50;99991.00;;;;5014510;28;20251;-75
2023/11/29 09:00:03;;;;;;;2.40;0.80;;;7.70;66.30;9.60;99996.00;;;;5013733;28;20201;-75
2023/11/29 09:02:32;;;;;;;3.08;1.02;;;7.70;66.20;9.50;99994.00;;;;5016138;28;20502;-76
2023/11/29 09:04:59;;;;;;;1.65;0.65;;;7.70;66.20;9.60;99995.00;;;;5020185;28;20236;-75
2023/11/29 09:07:26;;;;;;;2.47;1.00;;;7.70;66.20;9.60;100001.00;;;;5023300;28;20211;-75
2023/11/29 09:09:55;;;;;;;1.25;0.68;;;7.70;66.30;9.60;100010.00;;;;5024432;28;20196;-76
2023/11/29 09:12:23;;;;;;;1.77;1.02;;;7.80;66.30;9.60;100017.00;;;;5024498;28;20386;-75
2023/11/29 09:14:50;;;;;;;2.13;0.93;;;7.80;66.20;9.60;100008.00;;;;5024594;28;20239;-75
2023/11/29 09:17:17;;;;;;;3.83;0.95;;;7.80;66.20;9.70;100012.00;;;;5025463;28;20196;-76
2023/11/29 09:19:45;;;;;;;1.30;0.90;;;7.80;66.10;9.70;100015.00;;;;5024991;28;20310;-75
2023/11/29 09:22:12;;;;;;;1.27;0.63;;;7.90;66.20;9.80;100018.00;;;;5019963;28;20577;-75
2023/11/29 09:24:39;;;;;;;3.78;1.17;;;7.90;66.30;9.90;100021.00;;;;5024749;28;20303;-76
2023/11/29 09:27:06;;;;;;;3.70;1.05;;;7.90;66.40;9.90;100022.00;;;;5024187;28;20189;-76
2023/11/29 09:29:33;;;;;;;1.63;1.20;;;8.00;66.50;10.00;100030.00;;;;5025089;28;20192;-76
2023/11/29 09:32:01;;;;;;;3.28;1.50;;;8.10;66.60;10.00;100037.00;;;;5024577;28;20192;-76
2023/11/29 09:34:28;;;;;;;2.15;1.25;;;8.10;66.50;10.10;100036.00;;;;5020780;28;20738;-75
2023/11/29 09:36:59;;;;;;;2.10;1.02;;;8.20;66.50;10.10;100035.00;;;;5026448;28;20204;-75
2023/11/29 09:39:28;;;;;;;2.95;1.20;;;8.20;66.30;10.10;100025.00;;;;5018891;28;20250;-75
2023/11/29 09:41:57;;;;;;;2.08;1.17;;;8.20;66.00;10.10;100033.00;;;;5024376;28;20682;-75
2023/11/29 09:44:26;;;;;;;1.95;1.20;;;8.30;65.80;10.10;100031.00;;;;5025777;28;20542;-75
2023/11/29 09:46:53;;;;;;;3.25;1.08;;;8.30;65.50;10.10;100029.00;;;;5025981;28;20204;-75
2023/11/29 09:49:21;;;;;;;3.25;1.40;;;8.30;65.60;10.20;100035.00;;;;5027050;28;20203;-75
2023/11/29 09:51:48;;;;;;;1.33;0.88;;;8.40;65.60;10.20;100036.00;;;;5027528;28;20235;-75
2023/11/29 09:54:16;;;;;;;1.05;0.70;;;8.40;65.60;10.20;100036.00;;;;5027516;28;20200;-76
2023/11/29 09:56:43;;;;;;;2.60;0.90;;;8.40;65.50;10.20;100039.00;;;;5021603;28;20572;-76
2023/11/29 09:59:10;;;;;;;1.77;1.10;;;8.40;65.40;10.30;100039.00;;;;5019674;28;20674;-76
2023/11/29 10:01:38;;;;;;;1.95;0.90;;;8.40;65.40;10.40;100048.00;;;;5022098;28;20212;-76
2023/11/29 10:04:08;;;;;;;2.75;0.80;;;8.50;65.50;10.40;100051.00;;;;5021851;28;20203;-76
2023/11/29 10:06:35;;;;;;;1.73;0.68;;;8.50;65.50;10.50;100047.00;;;;5029381;28;20262;-76
2023/11/29 10:09:06;;;;;;;2.25;0.82;;;8.50;65.50;10.50;100053.00;;;;5027360;28;20204;-75
2023/11/29 10:11:34;;;;;;;2.28;0.85;;;8.60;65.60;10.60;100060.00;;;;5026199;28;20278;-76
2023/11/29 10:14:04;;;;;;;2.45;0.85;;;8.60;65.60;10.60;100064.00;;;;5024346;28;20207;-76
2023/11/29 10:16:31;;;;;;;1.70;0.45;;;8.70;65.70;10.70;100054.00;;;;5030014;28;20681;-75
2023/11/29 10:18:58;;;;;;;1.65;0.88;;;8.70;65.60;10.80;100058.00;;;;5027200;28;20208;-76
2023/11/29 10:21:26;;;;;;;0.90;0.60;;;8.80;65.50;10.80;100060.00;;;;5028880;28;20219;-76
2023/11/29 10:23:53;;;;;;;0.88;0.70;;;8.90;65.60;10.90;100055.00;;;;5029621;28;20315;-76
2023/11/29 10:26:22;;;;;;;1.67;0.80;;;8.90;65.50;10.90;100051.00;;;;5030747;28;20293;-76
2023/11/29 10:28:51;;;;;;;2.97;0.85;;;9.00;65.50;11.00;100051.00;;;;5027977;28;20658;-76
2023/11/29 10:31:18;;;;;;;1.83;0.95;;;9.00;65.40;11.10;100061.00;;;;5027556;28;20212;-76
2023/11/29 10:33:47;;;;;;;1.85;1.08;;;9.10;65.50;11.20;100062.00;;;;5027957;28;20228;-76
2023/11/29 10:36:17;;;;;;;2.00;0.80;;;9.20;65.40;11.30;100064.00;;;;5028179;28;20291;-76
2023/11/29 10:38:57;;;;;;;2.28;0.77;;;9.30;65.20;11.20;100061.00;;;;5027272;28;20204;-76
2023/11/29 10:41:27;;;;;;;3.10;1.05;;;9.40;65.10;11.30;100053.00;;;;5029021;28;20196;-75
2023/11/29 10:44:01;;;;;;;2.63;0.82;;;9.40;65.00;11.40;100054.00;;;;5019288;28;20216;-76
2023/11/29 10:46:34;;;;;;;2.15;0.98;;;9.50;64.70;11.40;100055.00;;;;5024222;28;21025;-76
2023/11/29 10:49:10;;;;;;;1.58;0.70;;;9.50;64.50;11.40;100057.00;;;;5026715;28;21834;-76
2023/11/29 10:51:38;;;;;;;1.73;0.80;;;9.50;64.30;11.50;100058.00;;;;5016214;28;20206;-75
2023/11/29 10:54:07;;;;;;;0.88;0.60;;;9.60;64.10;11.50;100056.00;;;;5028734;28;20192;-76
2023/11/29 10:56:36;;;;;;;2.70;0.65;;;9.60;64.10;11.60;100057.00;;;;5026954;28;20203;-75
2023/11/29 10:59:23;;;;;;;2.50;0.60;;;9.60;64.20;11.50;100054.00;;;;5024786;28;20563;-75
2023/11/29 11:01:56;;;;;;;1.55;0.70;;;9.70;64.10;11.70;100055.00;;;;5014666;28;20299;-75
2023/11/29 11:04:23;;;;;;;2.20;1.25;;;9.70;64.30;11.80;100056.00;;;;5027232;28;20569;-76
2023/11/29 11:06:50;;;;;;;2.80;1.25;;;9.80;64.40;11.80;100053.00;;;;5018652;28;20559;-76
2023/11/29 11:09:36;;;;;;;1.27;0.57;;;9.80;64.10;11.70;100054.00;;;;5017967;28;20211;-75